Flight Track Log - Related Links

Times and Time Zones

All times are in EDT time to prevent confusion due to time zone crossing. See the EGF2829 flight status page for this flight to view local times or setup timezone preferences in your user account.

Time Position Orientation Groundspeed Altitude Reporting Facility
EDT Latitude Longitude Course Direction KTS MPH feet Rate Location/Type
Fri 02:57:56 PM 32.3475 -86.3278 275° West 210 242 5,800  Level Atlanta Center
Fri 02:58:00 PM 32.3002 -86.7181 278° West  Level FlightAware Approximate
Fri 02:58:56 PM 32.3586 -86.3919 282° West 158 182 8,600  Level Atlanta Center
Fri 02:59:00 PM 32.3125 -86.8288 278° West  Level FlightAware Approximate
Fri 02:59:56 PM 32.3572 -86.4756 269° West 183 211 9,800  Level Atlanta Center
Fri 03:00:00 PM 32.3167 -86.9401 270° West  Level FlightAware Approximate
Fri 03:00:56 PM 32.3592 -86.5789 271° West 257 296 10,400  Level Atlanta Center
Fri 03:01:00 PM 32.3167 -87.0518 270° West  Level FlightAware Approximate
Fri 03:01:56 PM 32.3608 -86.6969 271° West 319 367 11,800  Level Atlanta Center
Fri 03:02:00 PM 32.3187 -87.1633 275° West  Level FlightAware Approximate
Fri 03:02:56 PM 32.3625 -86.8078 271° West 342 394 13,400  Level Atlanta Center
Fri 03:03:00 PM 32.3261 -87.2746 275° West  Level FlightAware Approximate
Fri 03:03:56 PM 32.3661 -86.9258 272° West 355 409 14,900  Level Atlanta Center
Fri 03:04:56 PM 32.3675 -87.0414 271° West 355 409 16,400 1,450 Climbing Atlanta Center
Fri 03:05:56 PM 32.3689 -87.1544 271° West 355 409 17,800 1,400 Climbing Atlanta Center
Fri 03:06:56 PM 32.3681 -87.2703 270° West 355 409 19,200 1,500 Climbing Atlanta Center
Fri 03:07:56 PM 32.3731 -87.3908 273° West 355 409 20,800 1,550 Climbing Atlanta Center
Fri 03:08:56 PM 32.3764 -87.5042 272° West 361 415 22,300 1,450 Climbing Atlanta Center
Fri 03:09:56 PM 32.3772 -87.6197 271° West 361 415 23,700 1,471 Climbing Atlanta Center
Fri 03:12:20 PM 32.3783 -87.9000 270° West 358 412 27,300 3,618 Climbing Memphis Center
Fri 03:13:20 PM 32.3786 -88.0206 270° West 364 419 36,000 1,300 Climbing Memphis Center
Fri 03:14:20 PM 32.3786 -88.1386 270° West 364 419 29,900 -2,550 Descending Memphis Center
Fri 03:15:20 PM 32.3786 -88.2639 270° West 369 425 30,900 1,000 Climbing Memphis Center
Fri 03:16:20 PM 32.3767 -88.3994 269° West 390 449 31,900 950 Climbing Memphis Center
Fri 03:17:20 PM 32.3789 -88.5344 271° West 405 466 32,800 1,050 Climbing Memphis Center
Fri 03:18:20 PM 32.3808 -88.6822 271° West 405 466 34,000 1,150 Climbing Memphis Center
Fri 03:19:20 PM 32.3806 -88.8175 270° West 410 472 35,100 1,000 Climbing Memphis Center
Fri 03:20:20 PM 32.3864 -88.9575 273° West 415 478 36,000 450 Climbing Memphis Center
Fri 03:21:20 PM 32.3961 -89.0928 275° West 422 486 36,000  Level Memphis Center
Fri 03:22:20 PM 32.4017 -89.2281 273° West 422 486 36,000  Level Memphis Center
Fri 03:23:20 PM 32.4089 -89.3608 274° West 417 480 36,000  Level Memphis Center
Fri 03:24:20 PM 32.4142 -89.4961 273° West 417 480 36,000  Level Memphis Center
Fri 03:25:20 PM 32.4214 -89.6289 274° West 417 480 36,000  Level Memphis Center
Fri 03:26:20 PM 32.4283 -89.7617 274° West 412 474 36,000  Level Memphis Center
Fri 03:27:20 PM 32.4331 -89.8969 272° West 412 474 36,000  Level Memphis Center
Fri 03:28:20 PM 32.4397 -90.0250 274° West 402 463 36,000  Level Memphis Center
Fri 03:29:20 PM 32.4464 -90.1556 273° West 402 463 36,000  Level Memphis Center
Fri 03:30:20 PM 32.4506 -90.2833 272° West 402 463 36,000  Level Memphis Center
Fri 03:31:20 PM 32.4569 -90.4114 273° West 402 463 36,000  Level Memphis Center
Fri 03:32:20 PM 32.4631 -90.5394 273° West 396 456 36,000  Level Memphis Center
Fri 03:33:20 PM 32.4692 -90.6650 273° West 396 456 36,000  Level Memphis Center
Fri 03:34:20 PM 32.4728 -90.7931 272° West 390 449 36,000  Level Memphis Center
Fri 03:35:20 PM 32.4767 -90.9189 272° West 390 449 36,000  Level Memphis Center
Fri 03:36:20 PM 32.4822 -91.0444 273° West 390 449 36,000  Level Memphis Center
Fri 03:38:34 PM 32.4956 -91.3131 273° West 384 442 36,000  Level Fort Worth Center
Fri 03:39:34 PM 32.4992 -91.4358 272° West 384 442 36,000  Level Fort Worth Center
Fri 03:40:34 PM 32.5008 -91.5589 271° West 384 442 36,000  Level Fort Worth Center
Fri 03:41:34 PM 32.5067 -91.6842 273° West 384 442 36,000  Level Fort Worth Center
Fri 03:42:34 PM 32.5103 -91.8094 272° West 384 442 36,000  Level Fort Worth Center
Fri 03:43:34 PM 32.5156 -91.9322 273° West 384 442 36,000  Level Fort Worth Center
Fri 03:44:34 PM 32.5189 -92.0575 272° West 384 442 36,000  Level Fort Worth Center
Fri 03:45:34 PM 32.5097 -92.1839 265° West 384 442 36,000  Level Fort Worth Center
Fri 03:46:34 PM 32.5003 -92.3075 265° West 389 448 36,000  Level Fort Worth Center
Fri 03:47:34 PM 32.4906 -92.4311 265° West 389 448 36,000  Level Fort Worth Center
Fri 03:48:34 PM 32.4811 -92.5647 265° West 382 440 36,000  Level Fort Worth Center
Fri 03:49:34 PM 32.4733 -92.6906 266° West 382 440 36,000  Level Fort Worth Center
Fri 03:50:34 PM 32.4633 -92.8167 265° West 388 447 36,000  Level Fort Worth Center
Fri 03:51:34 PM 32.4533 -92.9428 265° West 388 447 36,000  Level Fort Worth Center
Fri 03:52:34 PM 32.4453 -93.0686 266° West 388 447 36,000  Level Fort Worth Center
Fri 03:53:34 PM 32.4369 -93.1922 265° West 388 447 36,000  Level Fort Worth Center
Fri 03:54:34 PM 32.4264 -93.3156 264° West 388 447 36,000  Level Fort Worth Center
Fri 03:55:34 PM 32.4200 -93.4414 267° West 388 447 36,000  Level Fort Worth Center
Fri 03:56:34 PM 32.4072 -93.5700 263° West 388 447 36,000  Level Fort Worth Center
Fri 03:57:34 PM 32.3986 -93.6933 265° West 388 447 36,000  Level Fort Worth Center
Fri 03:58:34 PM 32.3892 -93.8044 264° West 383 441 36,000  Level Fort Worth Center
Fri 03:59:34 PM 32.3781 -93.9303 264° West 389 448 36,000  Level Fort Worth Center
Fri 04:00:34 PM 32.3689 -94.0536 265° West 389 448 36,000  Level Fort Worth Center
Fri 04:01:34 PM 32.3619 -94.1792 266° West 389 448 36,000  Level Fort Worth Center
Fri 04:02:34 PM 32.3503 -94.3050 264° West 389 448 36,000  Level Fort Worth Center
Fri 04:03:34 PM 32.3389 -94.4308 264° West 389 448 36,000  Level Fort Worth Center
Fri 04:04:34 PM 32.3269 -94.5542 263° West 389 448 36,000  Level Fort Worth Center
Fri 04:05:34 PM 32.3194 -94.6797 266° West 389 448 36,000 -350 Level Fort Worth Center
Fri 04:06:34 PM 32.3075 -94.8056 264° West 389 448 35,300 -900 Descending Fort Worth Center
Fri 04:07:34 PM 32.2975 -94.9361 265° West 389 448 34,200 -1,050 Descending Fort Worth Center
Fri 04:08:34 PM 32.2897 -95.0664 266° West 395 455 33,200 -1,000 Descending Fort Worth Center
Fri 04:09:34 PM 32.2794 -95.1969 265° West 400 460 32,200 -1,050 Descending Fort Worth Center
Fri 04:10:34 PM 32.2672 -95.3275 264° West 405 466 31,100 -1,050 Descending Fort Worth Center
Fri 04:11:34 PM 32.2547 -95.4606 264° West 410 472 30,100 -1,000 Descending Fort Worth Center
Fri 04:12:34 PM 32.2442 -95.5981 265° West 415 478 29,100 -1,350 Descending Fort Worth Center
Fri 04:13:34 PM 32.2336 -95.7333 265° West 421 484 27,400 -2,150 Descending Fort Worth Center
Fri 04:14:34 PM 32.2417 -95.8733 274° West 426 490 24,800 -2,800 Descending Fort Worth Center
Fri 04:15:34 PM 32.2703 -96.0056 284° West 416 479 21,800 -2,550 Descending Fort Worth Center
Fri 04:16:34 PM 32.3028 -96.1328 287° West 416 479 19,700 -2,100 Descending Fort Worth Center
Fri 04:17:34 PM 32.3333 -96.2528 287° West 401 461 17,600 -2,050 Descending Fort Worth Center
Fri 04:18:34 PM 32.3614 -96.3756 285° West 389 448 15,600 -1,800 Descending Fort Worth Center
Fri 04:19:34 PM 32.4039 -96.4758 297° West 370 426 14,000 -1,550 Descending Fort Worth Center
Fri 04:20:34 PM 32.4692 -96.5539 315° West 342 394 12,500 -1,450 Descending Fort Worth Center
Fri 04:21:34 PM 32.5325 -96.6297 315° West 336 387 11,100 -750 Descending Fort Worth Center
Fri 04:22:34 PM 32.5892 -96.6958 316° Northwest 309 356 11,000 -50 Descending Fort Worth Center
Fri 04:23:34 PM 32.6458 -96.7669 313° West 299 344 11,000  Level Fort Worth Center
Fri 04:24:00 PM 32.6833 -96.8000 323° Northwest 298 343 11,000  Level Dallas / Fort Worth TRACON
Fri 04:25:01 PM 32.7333 -96.8667 312° West 276 318 11,000  Level Dallas / Fort Worth TRACON
Fri 04:26:01 PM 32.7833 -96.9333 312° West 240 276 11,000 -303 Level Dallas / Fort Worth TRACON
Fri 04:27:00 PM 32.8333 -96.9833 320° Northwest 247 284 10,400 -1,100 Descending Dallas / Fort Worth TRACON
Fri 04:28:01 PM 32.8833 -97.0333 320° Northwest 238 274 8,800 -1,722 Descending Dallas / Fort Worth TRACON
Fri 04:28:55 PM 32.9167 -97.0833 308° West 237 273 7,100 -1,540 Descending Dallas / Fort Worth TRACON
Fri 04:29:54 PM 32.9833 -97.1167 337° Northwest 245 282 5,900 -1,563 Descending Dallas / Fort Worth TRACON
Fri 04:30:54 PM 33.0500 -97.1167 360° North 237 273 4,000 -1,438 Descending Dallas / Fort Worth TRACON
Fri 04:31:55 PM 33.1167 -97.1333 348° North 239 275 3,000 -496 Descending Dallas / Fort Worth TRACON
Fri 04:32:55 PM 33.1167 -97.0833 90° East 178 205 3,000 50 Level Dallas / Fort Worth TRACON
Fri 04:33:55 PM 33.0833 -97.0500 140° Southeast 155 178 3,100 50 Climbing Dallas / Fort Worth TRACON
Fri 04:34:55 PM 33.0333 -97.0500 180° South 155 178 3,100  Level Dallas / Fort Worth TRACON

Login

Don't have an account? Register now (free) for customized features, flight alerts, and more!